High Level Airport
CYOJ : now visible

Airfield :











YOU CAN JOIN US ON...

 
LOGIN :

Register | Disclaimer

   EN    FR    IT 

 









Legend :    VFR   Marginal VFR   IFR   Intensive IFR   Very Intensive IFR
Visi :
Ceiling :
>= 8 km
>= 3000ft
5 to 8 km
1000 to 3000 ft
1500m to 5 km
500 to 1000 ft
800 to 1500m
200 to 500 ft
< 800m
< 200 ft
Symbols :   Thunderstorms  Fog  Heavy snow  Heavy precipitations  Wind > 20 kt






- Airport Elevation : 1110 ft
- IATA code : YOJ


CYOJ - High Level

CURRENT METAR :
  • 030908Z AUTO VRB02KT 2 1/2SM BR SCT100 BKN120 BKN240 19/19 A2968 RMK LTNG DIST SE S SW SLP054 DENSITY ALT 2000FT

EXPIRED METARs :
  • 030817Z AUTO 29002KT 3SM BR BKN120 BKN150 19/19 A2970 RMK LTNG DIST SE SLP061 DENSITY ALT 2000FT
  • 030807Z AUTO VRB02KT 2 1/2SM BR BKN120 BKN140 19/19 A2970 RMK SLP061 DENSITY ALT 2000FT
  • 030757Z AUTO 35002KT 2 1/4SM BR BKN120 BKN140 19/19 A2970 RMK SLP062 DENSITY ALT 2000FT
  • 030746Z AUTO 00000KT 2SM BR FEW120 19/19 A2971 RMK SLP063 DENSITY ALT 2000FT
  • 030731Z AUTO 36003KT 2 1/2SM BR SCT120 19/19 A2971 RMK VIS VRB 1 1/4-3 SLP064 DENSITY ALT 2000FT
  • 030723Z AUTO 00000KT 3SM BR SCT120 19/19 A2971 RMK SLP065 DENSITY ALT 2000FT
  • 030700Z AUTO 36004KT 1/2SM FG CLR 19/19 A2971 RMK SLP065 DENSITY ALT 2100FT
  • 030639Z AUTO VRB02KT 1SM BR CLR 19/19 A2972 RMK VIS VRB 1/4-3 SLP067 DENSITY ALT 2000FT

TAF TAF CYOJ
Valid from the 03 at 07:00 until the 03 at 19:00 UTC


030642Z 0307/0319 14006KT P6SM FEW060 SCT120 BKN200
TEMPO 0307/0310 1SM BR SCT006
PROB40 0307/0310 1/2SM FG VV002
FM031000 VRB03KT P6SM -SHRA SCT008 BKN060 OVC120
PROB30 0310/0315 VRB15G25KT 1SM TSRA BR BKN008 OVC060CB
FM031500 VRB03KT P6SM SCT008 BKN060
TEMPO 0315/0319 BKN008
BECMG 0316/0318 28010KT RMK FCST BASED ON AUTO OBS. NXT FCST BY 031300Z
CZEG FIR / North America



MET'MAP, your aeronautical weather chart ! - Copyright ORBIFLY December 2007 - Disclaimer

ORBIFLY MET'MAP TEAM :

Programming & Development : Alexandra Zaïnal
Concept & original design : Baudouin d'Aumeries
Assistance for programming : Marc-Olivier Méhu
Technical & hardware support : Manuel Goepfert

Contact : metmap@orbifly.com




SOURCES & CREDITS :

   NOAA       Earth
Advisory